Latest Weather Observations for Glen Innes Airport

IDN60801

Issued at 4:42 am EST Thursday 30 June 2022 (issued every 10 minutes, with the page automatically refreshed every 10 minutes)

About weather observations | Map of weather stations | Latest weather observations for NSW | Other Formats
Station Details ID: 056243 Name: GLEN INNES AIRPORT AWS Lat: -29.68 Lon: 151.69 Height: 1044.3 m
Data from the previous 72 hours. | See also: Recent months at Glen Innes Airport
Date/Time
EST
Temp
°C
App
Temp
°C
Dew
Point
°C
Rel
Hum
%
Delta-T
°C
Wind Press
QNH
hPa
Press
MSL
hPa
Rain since
9am
mm
Dir  Spd
km/h
Gust
km/h
Spd
kts
Gust
kts
30/04:30am 3.1 1.6 3.0 99 0.0 CALM 0 0 0 0 1023.3 1023.4 0.0
30/04:28am 3.0 1.5 2.9 99 0.0 CALM 0 0 0 0 1023.1 1023.3 0.0
30/04:24am 3.0 1.5 2.9 99 0.0 CALM 0 0 0 0 1023.1 1023.3 0.0
30/04:17am 3.4 2.0 3.3 99 0.0 CALM 0 4 0 2 1023.1 1023.3 0.0
30/04:00am 3.6 1.1 3.5 99 0.0 E 6 7 3 4 1023.0 1023.2 0.0
30/03:30am 3.7 1.2 3.6 99 0.0 E 6 6 3 3 1022.9 1023.1 0.0
30/03:00am 3.8 0.3 3.5 98 0.1 E 11 13 6 7 1022.6 1022.7 0.0
30/02:30am 4.0 1.3 3.7 98 0.1 SE 7 9 4 5 1023.4 1023.5 0.0
30/02:00am 4.4 1.4 4.1 98 0.1 SSE 9 11 5 6 1023.8 1024.0 0.0
30/01:30am 4.9 2.4 4.6 98 0.1 SE 7 9 4 5 1024.1 1024.3 0.0
30/01:00am 5.3 3.8 5.0 98 0.1 SE 2 7 1 4 1024.3 1024.4 0.0
30/12:30am 5.4 2.6 5.3 99 0.0 ESE 9 19 5 10 1023.8 1024.0 0.0
30/12:00am 5.2 2.8 5.1 99 0.0 SE 7 9 4 5 1024.8 1025.0 0.0
 
Date/Time
EST
Temp
°C
App
Temp
°C
Dew
Point
°C
Rel
Hum
%
Delta-T
°C
Wind Press
QNH
hPa
Press
MSL
hPa
Rain since
9am
mm
Dir  Spd
km/h
Gust
km/h
Spd
kts
Gust
kts
29/11:30pm 5.0 2.7 4.9 99 0.0 ESE 6 6 3 3 1025.1 1025.3 0.0
29/11:00pm 4.7 3.1 4.6 99 0.0 ESE 2 7 1 4 1025.5 1025.7 0.0
29/10:30pm 4.2 1.2 4.1 99 0.0 SE 9 9 5 5 1024.8 1025.0 0.0
29/10:00pm 4.3 1.8 4.0 98 0.1 SW 6 7 3 4 1025.1 1025.3 0.0
29/09:30pm 4.4 1.9 4.0 97 0.2 ESE 6 7 3 4 1024.8 1025.0 0.0
29/09:00pm 5.4 3.9 5.0 97 0.2 ENE 2 7 1 4 1024.9 1025.1 0.0
29/08:30pm 5.7 2.1 5.0 95 0.3 E 13 15 7 8 1024.8 1025.0 0.0
29/08:00pm 6.4 3.7 5.5 94 0.4 ESE 9 13 5 7 1024.8 1025.0 0.0
29/07:30pm 7.2 4.2 6.0 92 0.6 E 11 13 6 7 1025.0 1025.2 0.0
29/07:00pm 7.3 5.0 5.6 89 0.8 ESE 7 9 4 5 1025.1 1025.3 0.0
29/06:30pm 8.0 5.8 5.5 84 1.2 N 6 7 3 4 1024.8 1025.0 0.0
29/06:00pm 8.3 5.6 5.4 82 1.4 N 9 11 5 6 1024.7 1024.9 0.0
29/05:30pm 8.3 6.2 5.9 85 1.2 N 6 9 3 5 1024.4 1024.5 0.0
29/05:00pm 8.9 6.6 5.8 81 1.5 NNE 7 11 4 6 1024.0 1024.2 0.0
29/04:30pm 9.5 6.8 5.7 77 1.8 E 9 11 5 6 1024.3 1024.4 0.0
29/04:00pm 9.9 6.9 5.9 76 1.9 ESE 11 13 6 7 1024.1 1024.3 0.0
29/03:30pm 10.0 7.3 5.4 73 2.2 ESE 9 15 5 8 1024.5 1024.6 0.0
29/03:00pm 10.3 7.2 5.7 73 2.2 E 11 15 6 8 1024.4 1024.5 0.0
29/02:30pm 10.3 6.4 5.5 72 2.3 E 15 20 8 11 1024.8 1025.0 0.0
29/02:00pm 10.0 6.1 5.4 73 2.2 E 15 20 8 11 1024.9 1025.1 0.0
29/01:30pm 9.8 6.0 5.6 75 2.0 ESE 15 20 8 11 1025.1 1025.3 0.0
29/01:00pm 9.7 6.6 5.7 76 1.9 SE 11 15 6 8 1025.6 1025.8 0.0
29/12:30pm 9.7 5.5 5.7 76 1.9 ESE 17 22 9 12 1025.8 1026.0 0.0
29/12:00pm 9.5 4.9 5.5 76 1.9 ESE 19 26 10 14 1026.2 1026.5 0.0
29/11:30am 9.5 5.0 6.0 79 1.7 E 19 28 10 15 1026.7 1026.9 0.0
29/11:00am 9.3 4.4 6.7 84 1.3 ESE 22 28 12 15 1026.7 1026.9 0.0
29/10:41am 9.1 4.8 7.1 87 1.0 E 19 22 10 12 1026.9 1027.1 0.0
29/10:30am 8.6 3.6 6.4 86 1.1 E 22 28 12 15 1027.0 1027.2 0.0
29/10:00am 8.0 3.5 6.9 93 0.5 ESE 20 28 11 15 1027.0 1027.2 0.0
29/09:47am 7.5 3.1 6.6 94 0.4 ESE 19 22 10 12 1027.1 1027.4 0.0
29/09:34am 7.6 4.5 7.2 97 0.2 ESE 13 19 7 10 1027.2 1027.5 0.0
29/09:30am 7.5 4.4 7.1 97 0.2 ESE 13 19 7 10 1027.1 1027.4 0.0
29/09:00am 7.0 3.7 6.4 96 0.3 ESE 13 17 7 9 1027.0 1027.2 0.0
29/08:30am 6.4 2.6 6.0 97 0.2 E 15 20 8 11 1026.6 1026.8 0.0
29/08:25am 6.5 2.8 6.2 98 0.1 E 15 20 8 11 1026.6 1026.8 0.0
29/08:00am 6.1 2.7 5.8 98 0.1 E 13 20 7 11 1026.5 1026.7 0.0
29/07:34am 5.9 3.2 5.5 97 0.2 ENE 9 11 5 6 1026.5 1026.7 0.0
29/07:30am 5.9 3.6 5.5 97 0.2 E 7 11 4 6 1026.4 1026.6 0.0
29/07:00am 5.4 2.6 5.0 97 0.2 ESE 9 15 5 8 1025.9 1026.1 0.0
29/06:30am 5.0 0.9 4.6 97 0.2 ESE 15 17 8 9 1025.4 1025.5 0.0
29/06:00am 4.7 1.4 4.3 97 0.2 ESE 11 15 6 8 1025.0 1025.2 0.0
29/05:30am 4.4 1.0 3.8 96 0.3 ESE 11 15 6 8 1024.8 1025.0 0.0
29/05:08am 4.4 1.8 4.0 97 0.2 E 7 11 4 6 1024.8 1025.0 0.0
29/05:06am 4.4 1.8 4.0 97 0.2 E 7 11 4 6 1024.9 1025.1 0.0
29/05:00am 4.5 1.5 4.2 98 0.1 E 9 15 5 8 1024.8 1025.0 0.0
29/04:30am 3.2 -1.2 2.9 98 0.1 ESE 15 15 8 8 1024.6 1024.8 0.0
29/04:00am 2.3 -1.1 1.9 97 0.2 E 9 11 5 6 1025.0 1025.2 0.0
29/03:58am 2.4 -1.0 2.0 97 0.2 E 9 11 5 6 1025.0 1025.2 0.0
29/03:30am 2.3 -1.6 1.3 93 0.4 E 11 15 6 8 1025.0 1025.2 0.0
29/03:18am 3.6 -0.4 2.9 95 0.3 ESE 13 19 7 10 1025.1 1025.3 0.0
29/03:00am 3.5 -0.8 3.4 99 0.0 SE 15 22 8 12 1025.1 1025.3 0.0
29/02:50am 2.2 -1.5 2.1 99 0.0 SE 11 17 6 9 1025.4 1025.5 0.0
29/02:30am 0.4 -2.9 0.3 99 0.0 E 7 11 4 6 1025.6 1025.8 0.0
29/02:00am 0.2 -4.3 -0.1 98 0.1 E 13 15 7 8 1025.7 1025.9 0.0
29/01:30am 0.9 -2.3 0.6 98 0.1 E 7 9 4 5 1025.9 1026.1 0.0
29/01:00am 0.4 -3.8 -0.6 93 0.4 ESE 11 13 6 7 1025.7 1025.9 0.0
29/12:30am 1.8 -0.4 0.8 93 0.4 ESE 2 6 1 3 1026.2 1026.5 0.0
29/12:00am 1.6 -2.5 0.1 90 0.6 ESE 11 17 6 9 1026.5 1026.7 0.0
 
Date/Time
EST
Temp
°C
App
Temp
°C
Dew
Point
°C
Rel
Hum
%
Delta-T
°C
Wind Press
QNH
hPa
Press
MSL
hPa
Rain since
9am
mm
Dir  Spd
km/h
Gust
km/h
Spd
kts
Gust
kts
28/11:30pm 2.7 -2.4 0.9 88 0.7 SE 17 19 9 10 1026.5 1026.7 0.0
28/11:00pm 3.8 -3.2 1.7 86 0.9 SE 28 33 15 18 1026.5 1026.7 0.0
28/10:49pm 3.6 -3.8 1.8 88 0.8 ESE 30 35 16 19 1026.4 1026.6 0.0
28/10:30pm 3.0 -1.2 1.4 89 0.7 ESE 13 17 7 9 1026.9 1027.1 0.0
28/10:00pm 2.5 -1.6 -0.1 83 1.0 ESE 11 15 6 8 1026.8 1027.0 0.0
28/09:30pm 4.3 -1.0 1.8 84 1.1 SE 19 26 10 14 1026.5 1026.7 0.0
28/09:00pm 3.8 -1.1 1.8 87 0.8 SE 17 22 9 12 1026.7 1026.9 0.0
28/08:30pm 1.4 -3.0 0.1 91 0.5 ESE 13 19 7 10 1026.9 1027.1 0.0
28/08:00pm 1.3 -2.8 -0.2 90 0.6 SE 11 15 6 8 1027.2 1027.5 0.0
28/07:30pm 1.3 -2.2 -1.3 83 1.0 ENE 7 11 4 6 1027.2 1027.5 0.0
28/07:00pm 2.5 -0.7 1.0 90 0.6 ESE 7 9 4 5 1026.9 1027.1 0.0
28/06:30pm 2.4 -2.4 0.0 84 1.0 ESE 15 15 8 8 1026.5 1026.7 0.0
28/06:00pm 2.7 -1.4 0.1 83 1.0 ESE 11 13 6 7 1026.4 1026.6 0.0
28/05:30pm 3.6 -0.5 0.1 78 1.4 ESE 11 15 6 8 1026.1 1026.3 0.0
28/05:00pm 6.5 1.4 1.0 68 2.3 ESE 17 20 9 11 1026.2 1026.5 0.0
28/04:30pm 8.6 3.3 1.7 62 3.0 E 19 24 10 13 1026.2 1026.5 0.0
28/04:00pm 9.5 4.0 1.9 59 3.4 ESE 20 26 11 14 1026.0 1026.2 0.0
28/03:30pm 10.1 3.9 2.2 58 3.6 ESE 24 30 13 16 1025.9 1026.1 0.0
28/03:00pm 10.6 4.4 2.2 56 3.8 SE 24 33 13 18 1025.8 1026.0 0.0
28/02:30pm 11.1 3.8 2.7 56 3.9 ESE 30 39 16 21 1025.9 1026.1 0.0
28/02:00pm 11.4 4.9 2.4 54 4.1 SE 26 35 14 19 1026.1 1026.3 0.0
28/01:30pm 12.0 6.2 2.2 51 4.5 ESE 22 33 12 18 1026.1 1026.3 0.0
28/01:00pm 12.0 5.5 2.5 52 4.4 ESE 26 32 14 17 1026.5 1026.7 0.0
28/12:30pm 11.8 6.1 2.8 54 4.2 ESE 22 35 12 19 1026.7 1026.9 0.0
28/12:00pm 11.6 4.8 2.9 55 4.0 ESE 28 35 15 19 1026.9 1027.1 0.0
28/11:30am 11.2 4.8 3.3 58 3.7 ESE 26 35 14 19 1027.1 1027.4 0.0
28/11:00am 10.6 4.5 2.9 59 3.5 ESE 24 32 13 17 1027.0 1027.2 0.0
28/10:30am 9.9 3.0 2.5 60 3.4 ESE 28 39 15 21 1026.9 1027.1 0.0
28/10:00am 9.1 2.5 2.0 61 3.1 SE 26 41 14 22 1027.1 1027.4 0.0
28/09:30am 8.1 2.0 3.0 70 2.3 SE 24 35 13 19 1027.1 1027.4 0.0
28/09:00am 6.5 -0.4 2.8 77 1.6 ESE 28 35 15 19 1026.8 1027.0 0.2
28/08:30am 5.3 -0.5 2.3 81 1.3 SE 22 28 12 15 1026.6 1026.8 0.2
28/08:00am 4.1 -2.2 1.8 85 1.0 SE 24 30 13 16 1026.6 1026.8 0.2
28/07:30am 3.1 -4.0 1.2 87 0.8 SE 28 35 15 19 1026.4 1026.6 0.2
28/07:00am 2.0 -3.7 0.5 90 0.6 SE 20 30 11 16 1026.1 1026.3 0.0
28/06:30am 1.2 -4.4 -0.1 91 0.5 SE 19 24 10 13 1026.0 1026.2 0.0
28/06:00am 1.0 -4.7 -0.5 90 0.6 SE 19 24 10 13 1025.8 1026.0 0.0
28/05:30am 0.8 -5.1 -0.6 90 0.5 SE 20 24 11 13 1025.5 1025.7 0.0
28/05:00am -0.5 -6.0 -1.8 91 0.5 SE 17 20 9 11 1025.0 1025.2 0.0
28/04:30am -1.8 -6.7 -3.1 91 0.4 SE 13 15 7 8 1024.6 1024.8 0.0
28/04:00am -0.5 -6.0 -2.2 88 0.6 ESE 17 20 9 11 1024.7 1024.9 0.0
28/03:30am -0.4 -5.9 -2.4 86 0.7 ESE 17 20 9 11 1024.7 1024.9 0.0
28/03:00am 0.3 -5.8 -2.1 84 0.9 ESE 20 24 11 13 1024.6 1024.8 0.0
28/02:30am 0.4 -6.0 -2.0 84 0.9 SE 22 26 12 14 1024.5 1024.6 0.0
28/02:00am -1.8 -7.9 -3.5 88 0.5 ESE 19 20 10 11 1024.9 1025.1 0.0
28/01:30am -2.5 -7.8 -3.3 94 0.2 ESE 15 17 8 9 1025.3 1025.4 0.0
28/01:00am -2.3 -6.9 -4.0 88 0.5 SE 11 13 6 7 1025.4 1025.5 0.0
28/12:30am -1.1 -4.8 -2.5 90 0.5 E 7 11 4 6 1025.5 1025.7 0.0
28/12:00am -0.3 -4.0 -3.0 82 0.9 ESE 7 9 4 5 1025.8 1026.0 0.0
 
Date/Time
EST
Temp
°C
App
Temp
°C
Dew
Point
°C
Rel
Hum
%
Delta-T
°C
Wind Press
QNH
hPa
Press
MSL
hPa
Rain since
9am
mm
Dir  Spd
km/h
Gust
km/h
Spd
kts
Gust
kts
27/11:30pm 1.2 -2.7 -1.4 83 1.0 SSE 9 13 5 7 1025.9 1026.1 0.0
27/11:00pm 1.5 -2.7 -1.2 82 1.0 S 11 15 6 8 1026.1 1026.3 0.0
27/10:30pm 1.3 -3.7 -1.1 84 0.9 SE 15 17 8 9 1025.9 1026.1 0.0
27/10:00pm 0.1 -5.4 -2.4 83 0.9 SSE 17 19 9 10 1025.9 1026.1 0.0
27/09:30pm -0.5 -5.7 -2.7 85 0.8 S 15 20 8 11 1025.8 1026.0 0.0
27/09:00pm -1.8 -6.0 -4.3 83 0.8 S 9 11 5 6 1025.9 1026.1 0.0
27/08:30pm -0.3 -3.8 -3.2 81 1.0 SW 6 7 3 4 1025.9 1026.1 0.0
27/08:00pm 0.6 -2.4 -2.1 82 1.0 ENE 4 7 2 4 1025.8 1026.0 0.0
27/07:30pm 1.8 -0.9 -2.1 75 1.5 SSE 2 6 1 3 1025.6 1025.8 0.0
27/07:00pm 4.1 -0.8 -0.7 71 1.9 SSW 15 19 8 10 1025.4 1025.5 0.0
27/06:30pm 4.8 -1.0 -0.4 69 2.1 SSW 20 22 11 12 1024.8 1025.0 0.0
27/06:00pm 5.0 -0.3 -0.6 67 2.2 SSW 17 19 9 10 1024.7 1024.9 0.0
27/05:30pm 5.4 1.1 -1.3 62 2.7 SSW 11 15 6 8 1024.3 1024.4 0.0
27/05:00pm 7.2 2.2 -1.2 55 3.4 SSW 15 20 8 11 1024.0 1024.2 0.0
27/04:30pm 9.4 3.6 -1.6 46 4.5 SSW 19 26 10 14 1023.8 1024.0 0.0
27/04:00pm 10.5 4.4 -2.2 41 5.2 SSW 20 28 11 15 1023.5 1023.6 0.0
27/03:30pm 11.3 5.0 -3.6 35 6.0 SW 20 28 11 15 1023.0 1023.2 0.0
27/03:00pm 11.7 4.6 -4.0 33 6.2 SW 24 30 13 16 1023.0 1023.2 0.0
27/02:30pm 12.2 6.3 -1.0 40 5.7 SW 20 32 11 17 1023.0 1023.2 0.0
27/02:00pm 11.8 4.1 0.0 44 5.1 SW 30 41 16 22 1023.3 1023.4 0.0
27/01:30pm 12.1 5.7 0.8 46 5.0 WSW 24 33 13 18 1023.3 1023.4 0.0
27/01:00pm 12.1 5.4 1.4 48 4.8 WSW 26 35 14 19 1023.4 1023.5 0.0
27/12:30pm 12.3 5.6 1.6 48 4.9 WSW 26 33 14 18 1023.6 1023.7 0.0
27/12:00pm 12.2 6.7 3.9 57 3.9 WSW 22 37 12 20 1024.0 1024.2 0.0
27/11:30am 11.2 4.3 2.8 56 3.9 SW 28 39 15 21 1024.6 1024.8 0.0
27/11:00am 11.3 4.8 2.6 55 4.0 SW 26 41 14 22 1024.8 1025.0 0.0
27/10:30am 11.0 4.2 3.1 58 3.7 WSW 28 37 15 20 1025.1 1025.3 0.0
27/10:00am 11.2 5.6 3.3 58 3.7 SW 22 35 12 19 1025.3 1025.4 0.0
27/09:30am 10.4 5.1 3.2 61 3.3 SW 20 30 11 16 1025.4 1025.5 0.0
27/09:00am 9.2 6.9 4.6 73 2.2 WSW 6 11 3 6 1025.5 1025.7 0.0
27/08:30am 7.6 6.6 5.4 86 1.0 CALM 0 0 0 0 1025.3 1025.4 0.0
27/08:28am 7.1 6.0 4.9 86 1.0 CALM 0 0 0 0 1025.3 1025.4 0.0
27/08:00am 2.1 -0.7 1.8 98 0.1 SE 6 6 3 3 1025.1 1025.3 0.0
27/07:30am -1.7 -5.1 -2.1 97 0.1 ESE 6 7 3 4 1024.8 1025.0 0.0
27/07:00am -0.2 -2.3 -0.9 95 0.3 CALM 0 0 0 0 1024.7 1024.9 0.0
27/06:30am 0.3 -2.1 -0.4 95 0.3 S 2 6 1 3 1024.4 1024.5 0.0
27/06:00am 0.3 -3.1 -0.4 95 0.3 E 7 11 4 6 1024.0 1024.2 0.0
27/05:30am 0.4 -3.3 -0.3 95 0.3 E 9 11 5 6 1024.0 1024.2 0.0
27/05:00am 0.1 -3.7 -0.5 96 0.2 E 9 11 5 6 1024.3 1024.4 0.0

Other formats

Comma delimited format used in spreadsheet applications
http://www.bom.gov.au/fwo/IDN60801/IDN60801.94588.axf

JavaScript Object Notation format (JSON) in row-major order
http://www.bom.gov.au/fwo/IDN60801/IDN60801.94588.json

Data quality

Most of these data are generated automatically and are frequently updated. Quality checks on data are not normally performed. It is possible for incorrect values to appear. Refer to information at About Latest Weather Observations and please check the disclaimer before using these data.